createdAt,value
2024-05-09T00:01:30.827Z,23.80
2024-05-09T00:04:33.332Z,23.80
2024-05-09T00:07:36.020Z,23.80
2024-05-09T00:10:40.311Z,23.80
2024-05-09T00:13:43.533Z,23.90
2024-05-09T00:16:46.125Z,23.90
2024-05-09T00:19:48.588Z,23.80
2024-05-09T00:22:53.408Z,23.80
2024-05-09T00:25:55.907Z,23.80
2024-05-09T00:28:59.658Z,23.80
2024-05-09T00:32:02.252Z,23.80
2024-05-09T00:35:05.115Z,23.80
2024-05-09T00:38:07.623Z,23.70
2024-05-09T00:41:10.170Z,23.70
2024-05-09T00:44:13.350Z,23.70
2024-05-09T00:47:15.912Z,23.70
2024-05-09T00:50:25.896Z,23.60
2024-05-09T00:53:36.556Z,23.60
2024-05-09T00:56:39.782Z,23.50
2024-05-09T00:59:42.439Z,23.50
2024-05-09T01:02:44.893Z,23.50
2024-05-09T01:05:47.381Z,23.50
2024-05-09T01:08:49.708Z,23.40
2024-05-09T01:11:54.541Z,23.40
2024-05-09T01:14:57.199Z,23.30
2024-05-09T01:18:01.684Z,23.30
2024-05-09T01:21:08.335Z,23.30
2024-05-09T01:24:11.147Z,23.30
2024-05-09T01:27:13.425Z,23.20
2024-05-09T01:30:38.076Z,23.20
2024-05-09T01:33:41.430Z,23.20
2024-05-09T01:36:44.032Z,23.10
2024-05-09T01:39:46.477Z,23.10
2024-05-09T01:42:48.861Z,23.00
2024-05-09T01:45:51.427Z,23.00
2024-05-09T01:48:54.047Z,23.00
2024-05-09T01:51:56.648Z,23.00
2024-05-09T01:55:00.772Z,22.90
2024-05-09T01:58:05.298Z,22.90
2024-05-09T02:01:07.698Z,22.80
2024-05-09T02:04:10.391Z,22.80
2024-05-09T02:07:13.085Z,22.80
2024-05-09T02:10:20.480Z,22.70
2024-05-09T02:13:28.712Z,22.70
2024-05-09T02:16:30.966Z,22.70
2024-05-09T02:19:33.475Z,22.60
2024-05-09T02:22:35.876Z,22.50
2024-05-09T02:25:38.308Z,22.40
2024-05-09T02:28:43.185Z,22.40
2024-05-09T02:31:45.780Z,22.30
2024-05-09T02:34:48.214Z,22.20
2024-05-09T02:37:50.800Z,22.30
2024-05-09T02:40:53.240Z,22.20
2024-05-09T02:43:55.755Z,22.10
2024-05-09T02:46:58.154Z,22.10
2024-05-09T02:50:01.985Z,22.10
2024-05-09T02:53:04.555Z,22.10
2024-05-09T02:56:07.386Z,22.00
2024-05-09T02:59:09.854Z,22.10
2024-05-09T03:02:12.377Z,22.10
2024-05-09T03:05:14.868Z,22.00
2024-05-09T03:08:17.537Z,22.00
2024-05-09T03:11:26.380Z,22.00
2024-05-09T03:14:29.336Z,22.00
2024-05-09T03:17:32.038Z,22.00
2024-05-09T03:20:36.262Z,21.90
2024-05-09T03:23:41.955Z,21.90
2024-05-09T03:26:44.523Z,21.80
2024-05-09T03:29:46.754Z,21.70
2024-05-09T03:32:49.331Z,21.70
2024-05-09T03:35:52.038Z,21.60
2024-05-09T03:38:54.470Z,21.60
2024-05-09T03:41:56.989Z,21.50
2024-05-09T03:45:00.573Z,21.40
2024-05-09T03:48:03.262Z,21.40
2024-05-09T03:51:07.379Z,21.40
2024-05-09T03:54:10.193Z,21.30
2024-05-09T03:57:12.685Z,21.30
2024-05-09T04:00:22.518Z,21.30
2024-05-09T04:03:34.527Z,21.40
2024-05-09T04:06:36.967Z,21.40
2024-05-09T04:09:39.573Z,21.40
2024-05-09T04:12:45.041Z,21.40
2024-05-09T04:15:55.802Z,21.40
2024-05-09T04:19:19.102Z,21.40
2024-05-09T04:22:21.781Z,21.40
2024-05-09T04:25:24.123Z,21.30
2024-05-09T04:28:27.114Z,21.30
2024-05-09T04:31:59.045Z,21.30
2024-05-09T04:35:01.492Z,21.20
2024-05-09T04:38:03.965Z,21.10
2024-05-09T04:41:06.346Z,21.00
2024-05-09T04:44:08.651Z,21.00
2024-05-09T04:47:12.656Z,21.00
2024-05-09T04:50:21.232Z,20.90
2024-05-09T04:53:31.750Z,20.90
2024-05-09T04:56:34.409Z,20.90
2024-05-09T04:59:37.082Z,20.90
2024-05-09T05:02:39.840Z,20.90
2024-05-09T05:05:42.763Z,20.90
2024-05-09T05:08:45.575Z,20.80
2024-05-09T05:11:47.993Z,20.80
2024-05-09T05:14:56.203Z,20.70
2024-05-09T05:17:59.273Z,20.70
2024-05-09T05:21:02.096Z,20.70
2024-05-09T05:24:06.081Z,20.60
2024-05-09T05:27:08.442Z,20.50
2024-05-09T05:30:17.583Z,20.50
2024-05-09T05:33:23.905Z,20.50
2024-05-09T05:36:26.358Z,20.40
2024-05-09T05:39:28.869Z,20.40
2024-05-09T05:42:31.454Z,20.40
2024-05-09T05:45:34.056Z,20.30
2024-05-09T05:48:37.520Z,20.30
2024-05-09T05:51:39.906Z,20.40
2024-05-09T05:54:42.213Z,20.40
2024-05-09T05:57:44.626Z,20.40
2024-05-09T06:00:47.068Z,20.30
2024-05-09T06:03:49.592Z,20.20
2024-05-09T06:06:52.341Z,20.30
2024-05-09T06:09:54.628Z,20.50
2024-05-09T06:12:56.905Z,20.60
2024-05-09T06:16:00.923Z,20.50
2024-05-09T06:19:05.174Z,20.30
2024-05-09T06:22:09.814Z,20.50
2024-05-09T06:25:12.073Z,20.50
2024-05-09T06:28:14.663Z,20.40
2024-05-09T06:31:17.070Z,20.40
2024-05-09T06:34:19.816Z,20.50
2024-05-09T06:37:22.307Z,20.60
2024-05-09T06:40:29.422Z,20.80
2024-05-09T06:43:38.440Z,20.90
2024-05-09T06:46:42.238Z,21.30
2024-05-09T06:49:45.024Z,21.60
2024-05-09T06:52:47.806Z,21.80
2024-05-09T06:55:50.378Z,21.60
2024-05-09T06:58:54.640Z,21.60
2024-05-09T07:01:57.371Z,21.40
2024-05-09T07:04:59.941Z,21.20
2024-05-09T07:08:02.462Z,21.40
2024-05-09T07:11:05.232Z,21.60
2024-05-09T07:14:07.986Z,21.70
2024-05-09T07:17:10.690Z,22.00
2024-05-09T07:20:23.000Z,21.90
2024-05-09T07:23:30.433Z,22.10
2024-05-09T07:26:32.811Z,22.00
2024-05-09T07:29:38.376Z,21.80
2024-05-09T07:32:41.224Z,22.10
2024-05-09T07:35:43.702Z,22.00
2024-05-09T07:38:46.113Z,22.30
2024-05-09T07:41:48.563Z,22.40
2024-05-09T07:45:11.199Z,22.70
2024-05-09T07:53:08.597Z,22.60
2024-05-09T07:54:52.415Z,22.30
2024-05-09T07:57:54.990Z,22.00
2024-05-09T08:00:57.573Z,22.00
2024-05-09T08:04:00.023Z,21.90
2024-05-09T08:07:02.443Z,22.10
2024-05-09T08:10:08.109Z,22.10
2024-05-09T08:13:12.955Z,22.10
2024-05-09T08:16:15.573Z,22.20
2024-05-09T08:19:17.954Z,22.50
2024-05-09T08:22:20.550Z,23.20
2024-05-09T08:25:23.066Z,23.80
2024-05-09T08:28:25.467Z,24.30
2024-05-09T08:31:27.958Z,25.10
2024-05-09T08:34:30.363Z,26.00
2024-05-09T08:37:37.799Z,26.80
2024-05-09T08:40:42.784Z,27.20
2024-05-09T08:43:46.331Z,27.90
2024-05-09T08:46:53.402Z,28.60
2024-05-09T08:49:59.506Z,28.90
2024-05-09T08:53:02.585Z,29.90
2024-05-09T08:56:09.708Z,30.50
2024-05-09T08:59:21.286Z,30.80
2024-05-09T09:02:24.859Z,31.60
2024-05-09T09:05:31.636Z,31.50
2024-05-09T09:08:39.857Z,31.60
2024-05-09T09:11:42.441Z,31.60
2024-05-09T09:14:44.956Z,32.00
2024-05-09T09:18:01.104Z,31.80
2024-05-09T09:21:04.254Z,31.70
2024-05-09T09:24:10.025Z,31.50
2024-05-09T09:27:16.094Z,31.40
2024-05-09T09:30:31.487Z,31.10
2024-05-09T09:33:43.202Z,31.40
2024-05-09T09:36:47.297Z,32.40
2024-05-09T09:39:50.603Z,32.80
2024-05-09T09:42:58.417Z,32.90
2024-05-09T09:46:11.575Z,32.40
2024-05-09T09:49:17.103Z,33.30
2024-05-09T09:52:20.550Z,34.20
2024-05-09T09:55:25.053Z,35.00
2024-05-09T09:58:29.474Z,35.10
2024-05-09T10:01:34.755Z,36.00
2024-05-09T10:04:37.574Z,35.70
2024-05-09T10:07:43.539Z,36.00
2024-05-09T10:10:50.865Z,35.90
2024-05-09T10:13:55.151Z,34.90
2024-05-09T10:17:07.151Z,35.10
2024-05-09T10:20:17.966Z,35.60
2024-05-09T10:23:30.758Z,35.80
2024-05-09T10:26:34.841Z,36.10
2024-05-09T10:29:37.171Z,36.60
2024-05-09T10:32:40.991Z,35.90
2024-05-09T10:35:52.037Z,35.80
2024-05-09T10:38:55.488Z,36.00
2024-05-09T10:41:59.223Z,36.40
2024-05-09T10:45:03.239Z,37.00
2024-05-09T10:48:06.233Z,36.10
2024-05-09T10:51:09.171Z,34.90
2024-05-09T10:54:11.759Z,34.90
2024-05-09T10:57:14.034Z,35.40
2024-05-09T11:00:27.054Z,35.80
2024-05-09T11:03:33.376Z,35.70
2024-05-09T11:06:38.460Z,35.60
2024-05-09T11:09:45.835Z,35.80
2024-05-09T11:12:48.208Z,36.10
2024-05-09T11:15:53.989Z,36.30
2024-05-09T11:18:58.217Z,36.60
2024-05-09T11:22:05.261Z,36.90
2024-05-09T11:25:09.461Z,36.70
2024-05-09T11:28:13.432Z,36.30
2024-05-09T11:31:16.057Z,36.00
2024-05-09T11:34:18.614Z,35.50
2024-05-09T11:37:21.556Z,34.80
2024-05-09T11:40:28.088Z,34.20
2024-05-09T11:43:34.788Z,33.70
2024-05-09T11:46:46.393Z,33.20
2024-05-09T11:49:48.958Z,32.60
2024-05-09T11:52:51.436Z,32.20
2024-05-09T11:55:54.014Z,31.90
2024-05-09T11:58:56.595Z,31.90
2024-05-09T12:01:59.287Z,31.80
2024-05-09T12:05:02.106Z,31.50
2024-05-09T12:08:04.891Z,31.00
2024-05-09T12:11:07.762Z,31.00
2024-05-09T12:14:10.436Z,30.90
2024-05-09T12:17:13.177Z,30.90
2024-05-09T12:20:21.579Z,30.70
2024-05-09T12:23:31.324Z,30.60
2024-05-09T12:26:33.733Z,30.30
2024-05-09T12:29:38.689Z,30.30
2024-05-09T12:32:41.290Z,30.10
2024-05-09T12:35:46.446Z,30.00
2024-05-09T12:39:03.334Z,29.60
2024-05-09T12:42:05.871Z,29.40
2024-05-09T12:45:08.774Z,29.20
2024-05-09T12:48:17.914Z,29.30
2024-05-09T12:51:20.336Z,29.00
2024-05-09T12:54:22.611Z,29.00
2024-05-09T12:57:25.835Z,29.10
2024-05-09T13:00:33.638Z,29.10
2024-05-09T13:03:37.018Z,29.00
2024-05-09T13:06:39.468Z,29.10
2024-05-09T13:09:41.947Z,29.20
2024-05-09T13:12:44.429Z,29.20
2024-05-09T13:15:47.060Z,29.30
2024-05-09T13:18:49.822Z,29.40
2024-05-09T13:21:52.545Z,29.40
2024-05-09T13:24:54.948Z,29.40
2024-05-09T13:27:58.123Z,29.40
2024-05-09T13:31:00.799Z,29.50
2024-05-09T13:34:03.845Z,29.60
2024-05-09T13:37:06.575Z,29.60
2024-05-09T13:40:12.118Z,29.70
2024-05-09T13:43:18.028Z,29.70
2024-05-09T13:46:21.619Z,29.70
2024-05-09T13:49:24.254Z,29.80
2024-05-09T13:52:27.035Z,29.80
2024-05-09T13:55:30.131Z,29.80
2024-05-09T13:58:32.983Z,29.50
2024-05-09T14:01:35.542Z,29.50
2024-05-09T14:04:37.992Z,29.40
2024-05-09T14:07:41.020Z,29.40
2024-05-09T14:10:46.591Z,29.50
2024-05-09T14:13:49.399Z,29.50
2024-05-09T14:16:52.162Z,29.50
2024-05-09T14:19:54.728Z,29.40
2024-05-09T14:22:57.013Z,29.50
2024-05-09T14:25:59.426Z,29.50
2024-05-09T14:29:01.868Z,29.50
2024-05-09T14:32:04.561Z,29.50
2024-05-09T14:35:07.317Z,29.60
2024-05-09T14:38:10.293Z,29.70
2024-05-09T14:41:13.586Z,29.70
2024-05-09T14:44:16.369Z,29.70
2024-05-09T14:47:18.844Z,29.70
2024-05-09T14:50:28.069Z,29.80
2024-05-09T14:53:37.241Z,29.60
2024-05-09T14:56:39.927Z,29.60
2024-05-09T14:59:42.490Z,29.60
2024-05-09T15:02:45.464Z,29.50
2024-05-09T15:05:49.151Z,29.40
2024-05-09T15:08:59.427Z,29.40
2024-05-09T15:12:02.486Z,29.30
2024-05-09T15:15:05.782Z,29.30
2024-05-09T15:18:08.635Z,29.20
2024-05-09T15:21:11.302Z,29.00
2024-05-09T15:24:13.686Z,28.90
2024-05-09T15:27:16.566Z,28.90
2024-05-09T15:30:28.106Z,28.90
2024-05-09T15:33:34.047Z,28.80
2024-05-09T15:36:37.137Z,28.70
2024-05-09T15:39:40.431Z,28.60
2024-05-09T15:42:43.363Z,28.70
2024-05-09T15:45:46.242Z,28.60
2024-05-09T15:48:49.031Z,28.70
2024-05-09T15:51:51.884Z,28.70
2024-05-09T15:54:54.516Z,28.70
2024-05-09T15:57:57.127Z,28.50
2024-05-09T16:01:00.308Z,28.50
2024-05-09T16:04:03.240Z,28.60
2024-05-09T16:07:06.083Z,28.60
2024-05-09T16:10:11.105Z,28.50
2024-05-09T16:13:17.181Z,28.50
2024-05-09T16:16:20.387Z,28.50
2024-05-09T16:19:23.211Z,28.50
2024-05-09T16:22:25.897Z,28.50
2024-05-09T16:25:28.490Z,28.40
2024-05-09T16:28:31.456Z,28.40
2024-05-09T16:31:34.098Z,28.40
2024-05-09T16:34:36.681Z,28.30
2024-05-09T16:37:39.442Z,28.30
2024-05-09T16:40:42.082Z,28.30
2024-05-09T16:43:44.540Z,28.30
2024-05-09T16:46:47.231Z,28.30
2024-05-09T16:49:49.916Z,28.30
2024-05-09T16:52:52.324Z,28.20
2024-05-09T16:55:55.416Z,28.30
2024-05-09T16:58:58.096Z,28.30
2024-05-09T17:02:00.764Z,28.20
2024-05-09T17:05:03.881Z,28.20
2024-05-09T17:08:07.246Z,28.20
2024-05-09T17:11:11.552Z,28.10
2024-05-09T17:14:14.307Z,28.20
2024-05-09T17:17:17.403Z,28.10
2024-05-09T17:20:29.343Z,28.20
2024-05-09T17:23:37.566Z,28.10
2024-05-09T17:26:40.033Z,28.00
2024-05-09T17:29:42.500Z,28.00
2024-05-09T17:32:45.159Z,28.00
2024-05-09T17:35:50.805Z,27.90
2024-05-09T17:38:53.532Z,27.80
2024-05-09T17:41:57.200Z,27.70
2024-05-09T17:45:00.129Z,27.70
2024-05-09T17:48:03.435Z,27.70
2024-05-09T17:51:06.505Z,27.60
2024-05-09T17:54:09.036Z,27.60
2024-05-09T17:57:11.441Z,27.60
2024-05-09T18:00:17.459Z,27.50
2024-05-09T18:03:23.962Z,27.40
2024-05-09T18:06:26.783Z,27.20
2024-05-09T18:09:29.058Z,27.20
2024-05-09T18:12:31.679Z,27.20
2024-05-09T18:15:34.604Z,27.10
2024-05-09T18:18:37.334Z,27.10
2024-05-09T18:21:40.170Z,26.90
2024-05-09T18:24:42.749Z,26.90
2024-05-09T18:27:45.208Z,26.80
2024-05-09T18:30:47.867Z,26.60
2024-05-09T18:33:51.108Z,26.50
2024-05-09T18:36:54.043Z,26.50
2024-05-09T18:39:56.647Z,26.40
2024-05-09T18:42:59.217Z,26.30
2024-05-09T18:46:04.187Z,26.20
2024-05-09T18:49:06.673Z,26.00
2024-05-09T18:52:09.173Z,25.90
2024-05-09T18:55:11.907Z,25.80
2024-05-09T18:58:17.796Z,25.60
2024-05-09T19:01:20.953Z,25.60
2024-05-09T19:04:24.339Z,25.60
2024-05-09T19:07:26.770Z,25.50
2024-05-09T19:10:34.018Z,25.40
2024-05-09T19:13:37.815Z,25.30
2024-05-09T19:16:53.407Z,25.20
2024-05-09T19:19:55.788Z,25.10
2024-05-09T19:22:58.381Z,25.00
2024-05-09T19:26:00.912Z,24.90
2024-05-09T19:29:04.478Z,24.70
2024-05-09T19:32:07.349Z,24.70
2024-05-09T19:35:09.632Z,24.60
2024-05-09T19:38:12.459Z,24.50
2024-05-09T19:41:15.068Z,24.40
2024-05-09T19:44:17.747Z,24.40
2024-05-09T19:47:20.660Z,24.40
2024-05-09T19:50:31.711Z,24.30
2024-05-09T19:53:41.663Z,24.30
2024-05-09T19:56:45.515Z,24.20
2024-05-09T19:59:47.896Z,24.20
2024-05-09T20:02:50.472Z,24.10
2024-05-09T20:05:53.056Z,24.00
2024-05-09T20:08:57.403Z,24.00
2024-05-09T20:11:59.941Z,23.80
2024-05-09T20:15:02.298Z,23.80
2024-05-09T20:18:05.625Z,23.70
2024-05-09T20:21:08.874Z,23.70
2024-05-09T20:24:11.573Z,23.70
2024-05-09T20:27:14.145Z,23.60
2024-05-09T20:30:24.770Z,23.50
2024-05-09T20:33:31.374Z,23.50
2024-05-09T20:36:33.816Z,23.40
2024-05-09T20:39:36.438Z,23.40
2024-05-09T20:42:38.839Z,23.30
2024-05-09T20:45:41.500Z,23.30
2024-05-09T20:48:44.226Z,23.30
2024-05-09T20:51:46.862Z,23.30
2024-05-09T20:54:49.412Z,23.30
2024-05-09T20:57:52.474Z,23.30
2024-05-09T21:00:54.972Z,23.20
2024-05-09T21:03:57.958Z,23.10
2024-05-09T21:07:00.788Z,23.10
2024-05-09T21:10:04.704Z,23.20
2024-05-09T21:13:10.690Z,23.10
2024-05-09T21:16:13.075Z,23.00
2024-05-09T21:19:15.666Z,22.90
2024-05-09T21:22:18.354Z,22.90
2024-05-09T21:25:20.831Z,22.90
2024-05-09T21:28:24.395Z,22.80
2024-05-09T21:31:27.156Z,22.80
2024-05-09T21:34:30.177Z,22.70
2024-05-09T21:37:32.486Z,22.70
2024-05-09T21:40:36.583Z,22.60
2024-05-09T21:43:39.801Z,22.60
2024-05-09T21:46:42.283Z,22.60
2024-05-09T21:49:44.575Z,22.60
2024-05-09T21:52:47.221Z,22.50
2024-05-09T21:55:49.768Z,22.50
2024-05-09T21:58:52.183Z,22.40
2024-05-09T22:01:54.775Z,22.30
2024-05-09T22:04:57.510Z,22.20
2024-05-09T22:07:59.913Z,22.20
2024-05-09T22:11:02.596Z,22.20
2024-05-09T22:14:05.138Z,22.10
2024-05-09T22:17:07.793Z,22.10
2024-05-09T22:20:18.079Z,22.10
2024-05-09T22:23:25.013Z,22.10
2024-05-09T22:26:27.317Z,22.10
2024-05-09T22:29:29.930Z,22.10
2024-05-09T22:32:32.341Z,22.10
2024-05-09T22:35:34.744Z,22.10
2024-05-09T22:38:37.355Z,22.10
2024-05-09T22:41:41.324Z,22.10
2024-05-09T22:44:43.695Z,22.00
2024-05-09T22:47:46.320Z,22.00
2024-05-09T22:50:48.769Z,21.90
2024-05-09T22:53:51.198Z,21.90
2024-05-09T22:56:53.798Z,21.90
2024-05-09T22:59:56.775Z,21.90
2024-05-09T23:03:03.574Z,21.80
2024-05-09T23:06:07.017Z,21.80
2024-05-09T23:09:10.729Z,21.70
2024-05-09T23:12:18.029Z,21.80
2024-05-09T23:15:20.538Z,21.70
2024-05-09T23:18:23.193Z,21.70
2024-05-09T23:21:27.258Z,21.70
2024-05-09T23:24:30.768Z,21.60
2024-05-09T23:27:33.111Z,21.60
2024-05-09T23:30:39.057Z,21.50
2024-05-09T23:33:47.139Z,21.50
2024-05-09T23:36:49.642Z,21.40
2024-05-09T23:39:52.269Z,21.40
2024-05-09T23:42:54.868Z,21.40
2024-05-09T23:45:57.399Z,21.40
2024-05-09T23:48:59.963Z,21.30
2024-05-09T23:52:02.624Z,21.30
2024-05-09T23:55:05.419Z,21.20
2024-05-09T23:58:08.329Z,21.20
